Página principal
METAR-TAF:

METAR-TAF

Aeroportos :

Curaçao, Antilhas Neerlandesas

Aeroporto Internacional Hato

latitude: 12-12N, longitude: 068-58W, altura: 9 m

Observação actual do tempo

O boletim foi feito há 56 minutos, às 03:00 UTC
Vento 15 kt de es-sudeste
Temperatura 29°C
Humidade 79%
Pressão 1012 hPa
Visibilidade 10 km ou mais
Poucas nuvensa uma altura de 1700 ft

METAR: TNCC 170300Z 11015KT 9999 FEW017 29/25 Q1012 NOSIG

Hora: 23:56 (03:56 UTC)

Previsão

O boletim foi feito há 5 horas e 56 minutos, às 22:00 UTC
Previsão válida de 17 às 00 UTC a 17 às 24 UTC
Vento 15 kt de este
Visibilidade 10 km ou mais
Nuvens dispersasa uma altura de 1800 ft

TAF: TNCC 162200Z 1700/1724 10015KT 9999 SCT018

Observações e previsões do tempo de mais de 4000 aeroportos (mensagens METAR e TAF).

As estações disponíveis são os pontos amarelos e vermelhos sobre o mapa.

Mova o rato sobre o mapa para ver o nome da estação.

Depois clique no ponto para visualizar as observações e previsões meteorológicas.

Para alterar o mapa : clique nos botões verdes com uma cruz preta para aumentar o zoom; no botão verde com uma pitada de zoom; ou nas setas verdes para mapas adjacentes.


METAR-TAF: